sensor_id;sensor_type;location;lat;lon;timestamp;P1;durP1;ratioP1;P2;durP2;ratioP2
20104;SDS011;10212;42.714;23.310;2023-02-18T00:07:26;31.77;;;16.67;;
20104;SDS011;10212;42.714;23.310;2023-02-18T00:27:28;30.83;;;15.38;;
20104;SDS011;10212;42.714;23.310;2023-02-18T00:47:29;23.25;;;10.98;;
20104;SDS011;10212;42.714;23.310;2023-02-18T01:07:29;32.50;;;14.77;;
20104;SDS011;10212;42.714;23.310;2023-02-18T01:27:30;35.72;;;17.15;;
20104;SDS011;10212;42.714;23.310;2023-02-18T01:47:31;40.63;;;19.02;;
20104;SDS011;10212;42.714;23.310;2023-02-18T02:07:36;39.47;;;18.10;;
20104;SDS011;10212;42.714;23.310;2023-02-18T02:49:46;33.70;;;15.38;;
20104;SDS011;10212;42.714;23.310;2023-02-18T02:59:59;24.73;;;13.07;;
20104;SDS011;10212;42.714;23.310;2023-02-18T03:30:12;52.92;;;26.08;;
20104;SDS011;10212;42.714;23.310;2023-02-18T03:40:17;57.80;;;27.40;;
20104;SDS011;10212;42.714;23.310;2023-02-18T03:50:18;62.42;;;29.92;;
20104;SDS011;10212;42.714;23.310;2023-02-18T04:00:19;52.72;;;25.95;;
20104;SDS011;10212;42.714;23.310;2023-02-18T04:10:20;53.25;;;24.95;;
20104;SDS011;10212;42.714;23.310;2023-02-18T04:20:21;49.08;;;21.88;;
20104;SDS011;10212;42.714;23.310;2023-02-18T04:30:22;42.25;;;20.35;;
20104;SDS011;10212;42.714;23.310;2023-02-18T04:50:24;51.88;;;25.13;;
20104;SDS011;10212;42.714;23.310;2023-02-18T05:00:24;56.47;;;26.70;;
20104;SDS011;10212;42.714;23.310;2023-02-18T05:10:27;56.75;;;27.80;;
20104;SDS011;10212;42.714;23.310;2023-02-18T05:20:28;48.00;;;24.15;;
20104;SDS011;10212;42.714;23.310;2023-02-18T05:30:28;47.17;;;23.92;;
20104;SDS011;10212;42.714;23.310;2023-02-18T05:50:29;46.00;;;21.35;;
20104;SDS011;10212;42.714;23.310;2023-02-18T06:10:30;49.63;;;23.73;;
20104;SDS011;10212;42.714;23.310;2023-02-18T06:30:32;52.80;;;24.17;;
20104;SDS011;10212;42.714;23.310;2023-02-18T06:50:33;49.25;;;22.63;;
20104;SDS011;10212;42.714;23.310;2023-02-18T07:10:33;48.38;;;23.45;;
20104;SDS011;10212;42.714;23.310;2023-02-18T07:30:34;55.30;;;25.25;;
20104;SDS011;10212;42.714;23.310;2023-02-18T07:40:34;44.33;;;22.05;;
20104;SDS011;10212;42.714;23.310;2023-02-18T07:50:35;40.72;;;20.13;;
20104;SDS011;10212;42.714;23.310;2023-02-18T08:00:37;38.47;;;18.92;;
20104;SDS011;10212;42.714;23.310;2023-02-18T08:10:38;36.53;;;17.52;;
20104;SDS011;10212;42.714;23.310;2023-02-18T08:20:38;34.08;;;18.30;;
20104;SDS011;10212;42.714;23.310;2023-02-18T08:30:43;28.88;;;12.63;;
20104;SDS011;10212;42.714;23.310;2023-02-18T08:40:47;24.60;;;11.27;;
20104;SDS011;10212;42.714;23.310;2023-02-18T08:50:48;17.45;;;8.45;;
20104;SDS011;10212;42.714;23.310;2023-02-18T09:00:48;17.65;;;8.88;;
20104;SDS011;10212;42.714;23.310;2023-02-18T09:10:49;18.08;;;8.32;;
20104;SDS011;10212;42.714;23.310;2023-02-18T09:20:56;19.85;;;9.10;;
20104;SDS011;10212;42.714;23.310;2023-02-18T09:31:08;17.85;;;8.13;;
20104;SDS011;10212;42.714;23.310;2023-02-18T09:41:18;16.27;;;7.93;;
20104;SDS011;10212;42.714;23.310;2023-02-18T09:51:27;16.08;;;8.48;;
20104;SDS011;10212;42.714;23.310;2023-02-18T10:01:29;14.35;;;6.30;;
20104;SDS011;10212;42.714;23.310;2023-02-18T10:11:37;9.35;;;5.10;;
20104;SDS011;10212;42.714;23.310;2023-02-18T10:21:40;9.98;;;4.40;;
20104;SDS011;10212;42.714;23.310;2023-02-18T10:31:43;7.90;;;4.33;;
20104;SDS011;10212;42.714;23.310;2023-02-18T10:41:58;8.63;;;4.35;;
20104;SDS011;10212;42.714;23.310;2023-02-18T10:52:20;8.27;;;4.45;;
20104;SDS011;10212;42.714;23.310;2023-02-18T11:02:22;9.02;;;3.72;;
20104;SDS011;10212;42.714;23.310;2023-02-18T11:12:25;7.80;;;4.40;;
20104;SDS011;10212;42.714;23.310;2023-02-18T11:22:38;5.70;;;3.53;;
20104;SDS011;10212;42.714;23.310;2023-02-18T11:32:40;11.00;;;4.82;;
20104;SDS011;10212;42.714;23.310;2023-02-18T11:42:42;7.78;;;4.22;;
20104;SDS011;10212;42.714;23.310;2023-02-18T11:52:47;8.77;;;4.10;;
20104;SDS011;10212;42.714;23.310;2023-02-18T12:02:49;8.32;;;5.10;;
20104;SDS011;10212;42.714;23.310;2023-02-18T12:33:34;8.50;;;4.25;;
20104;SDS011;10212;42.714;23.310;2023-02-18T12:43:52;10.77;;;4.50;;
20104;SDS011;10212;42.714;23.310;2023-02-18T12:53:59;11.02;;;4.05;;
20104;SDS011;10212;42.714;23.310;2023-02-18T13:14:55;8.77;;;3.95;;
20104;SDS011;10212;42.714;23.310;2023-02-18T13:25:02;7.80;;;4.40;;
20104;SDS011;10212;42.714;23.310;2023-02-18T13:45:22;8.00;;;4.22;;
20104;SDS011;10212;42.714;23.310;2023-02-18T13:55:32;6.80;;;4.22;;
20104;SDS011;10212;42.714;23.310;2023-02-18T14:05:45;7.28;;;4.10;;
20104;SDS011;10212;42.714;23.310;2023-02-18T14:15:47;8.18;;;4.38;;
20104;SDS011;10212;42.714;23.310;2023-02-18T14:25:54;10.10;;;5.20;;
20104;SDS011;10212;42.714;23.310;2023-02-18T15:07:03;10.93;;;5.45;;
20104;SDS011;10212;42.714;23.310;2023-02-18T15:17:26;9.00;;;4.90;;
20104;SDS011;10212;42.714;23.310;2023-02-18T15:27:30;12.50;;;6.43;;
20104;SDS011;10212;42.714;23.310;2023-02-18T15:37:34;10.27;;;5.20;;
20104;SDS011;10212;42.714;23.310;2023-02-18T15:47:34;12.70;;;5.85;;
20104;SDS011;10212;42.714;23.310;2023-02-18T15:57:44;11.20;;;6.50;;
20104;SDS011;10212;42.714;23.310;2023-02-18T16:07:50;12.30;;;6.43;;
20104;SDS011;10212;42.714;23.310;2023-02-18T16:17:52;15.68;;;7.40;;
20104;SDS011;10212;42.714;23.310;2023-02-18T16:28:01;19.95;;;8.90;;
20104;SDS011;10212;42.714;23.310;2023-02-18T16:38:02;13.30;;;7.35;;
20104;SDS011;10212;42.714;23.310;2023-02-18T16:48:03;12.40;;;7.93;;
20104;SDS011;10212;42.714;23.310;2023-02-18T16:58:04;12.60;;;7.25;;
20104;SDS011;10212;42.714;23.310;2023-02-18T17:08:21;13.23;;;8.10;;
20104;SDS011;10212;42.714;23.310;2023-02-18T17:18:25;13.30;;;7.25;;
20104;SDS011;10212;42.714;23.310;2023-02-18T17:28:26;14.18;;;7.90;;
20104;SDS011;10212;42.714;23.310;2023-02-18T17:38:26;15.55;;;8.93;;
20104;SDS011;10212;42.714;23.310;2023-02-18T17:48:27;17.05;;;7.90;;
20104;SDS011;10212;42.714;23.310;2023-02-18T17:58:28;16.17;;;8.52;;
20104;SDS011;10212;42.714;23.310;2023-02-18T18:08:29;12.90;;;7.20;;
20104;SDS011;10212;42.714;23.310;2023-02-18T18:18:30;16.80;;;9.18;;
20104;SDS011;10212;42.714;23.310;2023-02-18T18:28:30;14.45;;;8.38;;
20104;SDS011;10212;42.714;23.310;2023-02-18T18:38:32;12.35;;;6.70;;
20104;SDS011;10212;42.714;23.310;2023-02-18T18:48:33;11.68;;;5.78;;
20104;SDS011;10212;42.714;23.310;2023-02-18T18:58:33;11.48;;;5.53;;
20104;SDS011;10212;42.714;23.310;2023-02-18T19:08:34;22.52;;;8.95;;
20104;SDS011;10212;42.714;23.310;2023-02-18T19:18:34;14.37;;;7.53;;
20104;SDS011;10212;42.714;23.310;2023-02-18T19:28:35;18.77;;;10.55;;
20104;SDS011;10212;42.714;23.310;2023-02-18T19:38:36;19.17;;;9.20;;
20104;SDS011;10212;42.714;23.310;2023-02-18T19:48:37;12.18;;;6.25;;
20104;SDS011;10212;42.714;23.310;2023-02-18T19:58:37;14.57;;;6.60;;
20104;SDS011;10212;42.714;23.310;2023-02-18T20:08:41;13.57;;;6.78;;
20104;SDS011;10212;42.714;23.310;2023-02-18T20:18:41;13.90;;;7.03;;
20104;SDS011;10212;42.714;23.310;2023-02-18T20:28:42;16.67;;;8.20;;
20104;SDS011;10212;42.714;23.310;2023-02-18T20:38:43;22.20;;;9.45;;
20104;SDS011;10212;42.714;23.310;2023-02-18T20:48:49;22.17;;;10.27;;
20104;SDS011;10212;42.714;23.310;2023-02-18T20:58:50;18.45;;;10.00;;
20104;SDS011;10212;42.714;23.310;2023-02-18T21:08:51;19.25;;;10.35;;
20104;SDS011;10212;42.714;23.310;2023-02-18T21:18:53;22.45;;;10.25;;
20104;SDS011;10212;42.714;23.310;2023-02-18T21:28:55;25.70;;;11.88;;
20104;SDS011;10212;42.714;23.310;2023-02-18T21:38:58;26.20;;;12.10;;
20104;SDS011;10212;42.714;23.310;2023-02-18T21:49:01;26.08;;;12.55;;
20104;SDS011;10212;42.714;23.310;2023-02-18T21:59:01;27.38;;;12.10;;
20104;SDS011;10212;42.714;23.310;2023-02-18T22:09:03;25.58;;;12.60;;
20104;SDS011;10212;42.714;23.310;2023-02-18T22:19:05;21.45;;;10.45;;
20104;SDS011;10212;42.714;23.310;2023-02-18T22:29:06;27.23;;;11.27;;
20104;SDS011;10212;42.714;23.310;2023-02-18T22:39:06;22.10;;;10.75;;
20104;SDS011;10212;42.714;23.310;2023-02-18T22:49:07;17.63;;;8.82;;
20104;SDS011;10212;42.714;23.310;2023-02-18T22:59:08;20.85;;;9.95;;
20104;SDS011;10212;42.714;23.310;2023-02-18T23:09:14;19.98;;;10.07;;
20104;SDS011;10212;42.714;23.310;2023-02-18T23:19:19;25.20;;;12.10;;
20104;SDS011;10212;42.714;23.310;2023-02-18T23:29:20;22.75;;;12.10;;
20104;SDS011;10212;42.714;23.310;2023-02-18T23:39:21;22.45;;;10.95;;
20104;SDS011;10212;42.714;23.310;2023-02-18T23:49:22;20.90;;;11.15;;
20104;SDS011;10212;42.714;23.310;2023-02-18T23:59:24;23.88;;;11.32;;
